sensor_id;sensor_type;location;lat;lon;timestamp;P1;durP1;ratioP1;P2;durP2;ratioP2
18340;SDS011;9296;48.084;16.352;2024-02-23T00:00:42;14.25;;;11.27;;
18340;SDS011;9296;48.084;16.352;2024-02-23T00:03:14;14.18;;;10.85;;
18340;SDS011;9296;48.084;16.352;2024-02-23T00:05:41;14.35;;;11.00;;
18340;SDS011;9296;48.084;16.352;2024-02-23T00:08:18;14.10;;;10.80;;
18340;SDS011;9296;48.084;16.352;2024-02-23T00:10:48;14.07;;;11.05;;
18340;SDS011;9296;48.084;16.352;2024-02-23T00:13:24;14.88;;;10.70;;
18340;SDS011;9296;48.084;16.352;2024-02-23T00:15:54;14.48;;;11.07;;
18340;SDS011;9296;48.084;16.352;2024-02-23T00:18:30;14.15;;;11.02;;
18340;SDS011;9296;48.084;16.352;2024-02-23T00:21:00;14.80;;;11.48;;
18340;SDS011;9296;48.084;16.352;2024-02-23T00:23:31;15.25;;;10.98;;
18340;SDS011;9296;48.084;16.352;2024-02-23T00:26:07;13.32;;;10.40;;
18340;SDS011;9296;48.084;16.352;2024-02-23T00:28:38;13.55;;;10.20;;
18340;SDS011;9296;48.084;16.352;2024-02-23T00:31:05;14.80;;;11.10;;
18340;SDS011;9296;48.084;16.352;2024-02-23T00:33:36;12.70;;;10.20;;
18340;SDS011;9296;48.084;16.352;2024-02-23T00:36:07;14.60;;;10.63;;
18340;SDS011;9296;48.084;16.352;2024-02-23T00:38:42;14.00;;;10.20;;
18340;SDS011;9296;48.084;16.352;2024-02-23T00:41:12;14.90;;;10.73;;
18340;SDS011;9296;48.084;16.352;2024-02-23T00:43:48;13.05;;;10.43;;
18340;SDS011;9296;48.084;16.352;2024-02-23T00:46:18;14.75;;;10.48;;
18340;SDS011;9296;48.084;16.352;2024-02-23T00:48:46;14.02;;;10.57;;
18340;SDS011;9296;48.084;16.352;2024-02-23T00:51:16;12.80;;;10.10;;
18340;SDS011;9296;48.084;16.352;2024-02-23T00:53:45;14.40;;;9.80;;
18340;SDS011;9296;48.084;16.352;2024-02-23T00:56:15;13.50;;;10.32;;
18340;SDS011;9296;48.084;16.352;2024-02-23T00:58:49;13.93;;;10.50;;
18340;SDS011;9296;48.084;16.352;2024-02-23T01:01:25;14.95;;;10.32;;
18340;SDS011;9296;48.084;16.352;2024-02-23T01:04:06;15.93;;;10.77;;
18340;SDS011;9296;48.084;16.352;2024-02-23T01:06:36;13.45;;;10.18;;
18340;SDS011;9296;48.084;16.352;2024-02-23T01:09:05;13.95;;;9.98;;
18340;SDS011;9296;48.084;16.352;2024-02-23T01:11:33;14.30;;;10.45;;
18340;SDS011;9296;48.084;16.352;2024-02-23T01:14:02;13.98;;;10.77;;
18340;SDS011;9296;48.084;16.352;2024-02-23T01:16:32;13.77;;;10.60;;
18340;SDS011;9296;48.084;16.352;2024-02-23T01:18:59;13.95;;;10.65;;
18340;SDS011;9296;48.084;16.352;2024-02-23T01:21:29;14.02;;;10.40;;
18340;SDS011;9296;48.084;16.352;2024-02-23T01:23:59;14.20;;;10.93;;
18340;SDS011;9296;48.084;16.352;2024-02-23T01:26:27;13.85;;;9.82;;
18340;SDS011;9296;48.084;16.352;2024-02-23T01:28:54;14.90;;;10.48;;
18340;SDS011;9296;48.084;16.352;2024-02-23T01:31:33;13.48;;;10.57;;
18340;SDS011;9296;48.084;16.352;2024-02-23T01:34:06;14.65;;;9.98;;
18340;SDS011;9296;48.084;16.352;2024-02-23T01:36:36;15.00;;;10.43;;
18340;SDS011;9296;48.084;16.352;2024-02-23T01:39:06;11.98;;;9.68;;
18340;SDS011;9296;48.084;16.352;2024-02-23T01:41:37;15.98;;;10.13;;
18340;SDS011;9296;48.084;16.352;2024-02-23T01:44:10;14.20;;;10.30;;
18340;SDS011;9296;48.084;16.352;2024-02-23T01:46:49;12.57;;;9.95;;
18340;SDS011;9296;48.084;16.352;2024-02-23T01:49:19;12.70;;;10.00;;
18340;SDS011;9296;48.084;16.352;2024-02-23T01:51:56;12.63;;;9.88;;
18340;SDS011;9296;48.084;16.352;2024-02-23T01:54:27;11.95;;;9.73;;
18340;SDS011;9296;48.084;16.352;2024-02-23T01:57:00;14.13;;;10.13;;
18340;SDS011;9296;48.084;16.352;2024-02-23T01:59:28;13.40;;;10.35;;
18340;SDS011;9296;48.084;16.352;2024-02-23T02:02:17;12.70;;;10.02;;
18340;SDS011;9296;48.084;16.352;2024-02-23T02:04:49;14.27;;;10.52;;
18340;SDS011;9296;48.084;16.352;2024-02-23T02:07:17;12.27;;;10.00;;
18340;SDS011;9296;48.084;16.352;2024-02-23T02:09:53;12.45;;;10.05;;
18340;SDS011;9296;48.084;16.352;2024-02-23T02:12:35;14.70;;;10.32;;
18340;SDS011;9296;48.084;16.352;2024-02-23T02:15:05;13.38;;;10.57;;
18340;SDS011;9296;48.084;16.352;2024-02-23T02:17:37;13.52;;;10.00;;
18340;SDS011;9296;48.084;16.352;2024-02-23T02:20:06;12.93;;;10.15;;
18340;SDS011;9296;48.084;16.352;2024-02-23T02:22:35;13.30;;;9.90;;
18340;SDS011;9296;48.084;16.352;2024-02-23T02:25:05;13.10;;;9.80;;
18340;SDS011;9296;48.084;16.352;2024-02-23T02:27:35;15.52;;;9.90;;
18340;SDS011;9296;48.084;16.352;2024-02-23T02:30:04;13.50;;;10.23;;
18340;SDS011;9296;48.084;16.352;2024-02-23T02:32:32;15.07;;;10.20;;
18340;SDS011;9296;48.084;16.352;2024-02-23T02:35:03;11.60;;;9.45;;
18340;SDS011;9296;48.084;16.352;2024-02-23T02:37:54;11.82;;;9.55;;
18340;SDS011;9296;48.084;16.352;2024-02-23T02:40:21;13.20;;;10.15;;
18340;SDS011;9296;48.084;16.352;2024-02-23T02:42:53;14.20;;;9.98;;
18340;SDS011;9296;48.084;16.352;2024-02-23T02:45:25;13.10;;;9.55;;
18340;SDS011;9296;48.084;16.352;2024-02-23T02:47:55;13.48;;;10.15;;
18340;SDS011;9296;48.084;16.352;2024-02-23T02:50:32;12.45;;;9.23;;
18340;SDS011;9296;48.084;16.352;2024-02-23T02:53:00;11.88;;;9.10;;
18340;SDS011;9296;48.084;16.352;2024-02-23T02:55:34;11.60;;;8.68;;
18340;SDS011;9296;48.084;16.352;2024-02-23T02:58:04;12.90;;;8.95;;
18340;SDS011;9296;48.084;16.352;2024-02-23T03:00:31;13.52;;;8.65;;
18340;SDS011;9296;48.084;16.352;2024-02-23T03:03:06;11.73;;;8.80;;
18340;SDS011;9296;48.084;16.352;2024-02-23T03:05:37;12.57;;;8.73;;
18340;SDS011;9296;48.084;16.352;2024-02-23T03:08:07;12.23;;;8.55;;
18340;SDS011;9296;48.084;16.352;2024-02-23T03:10:49;10.88;;;8.13;;
18340;SDS011;9296;48.084;16.352;2024-02-23T03:13:30;11.32;;;8.65;;
18340;SDS011;9296;48.084;16.352;2024-02-23T03:16:00;10.70;;;8.73;;
18340;SDS011;9296;48.084;16.352;2024-02-23T03:18:27;12.63;;;8.80;;
18340;SDS011;9296;48.084;16.352;2024-02-23T03:21:01;11.52;;;8.38;;
18340;SDS011;9296;48.084;16.352;2024-02-23T03:23:32;12.18;;;8.20;;
18340;SDS011;9296;48.084;16.352;2024-02-23T03:26:03;11.07;;;8.45;;
18340;SDS011;9296;48.084;16.352;2024-02-23T03:28:31;11.43;;;8.30;;
18340;SDS011;9296;48.084;16.352;2024-02-23T03:31:13;10.80;;;8.07;;
18340;SDS011;9296;48.084;16.352;2024-02-23T03:33:43;9.90;;;8.07;;
18340;SDS011;9296;48.084;16.352;2024-02-23T03:36:15;10.60;;;7.82;;
18340;SDS011;9296;48.084;16.352;2024-02-23T03:41:51;9.10;;;7.57;;
18340;SDS011;9296;48.084;16.352;2024-02-23T03:44:22;9.85;;;7.97;;
18340;SDS011;9296;48.084;16.352;2024-02-23T03:46:54;11.82;;;8.00;;
18340;SDS011;9296;48.084;16.352;2024-02-23T03:49:35;11.90;;;7.63;;
18340;SDS011;9296;48.084;16.352;2024-02-23T03:52:13;10.20;;;6.90;;
18340;SDS011;9296;48.084;16.352;2024-02-23T03:54:48;9.63;;;6.65;;
18340;SDS011;9296;48.084;16.352;2024-02-23T03:57:21;10.00;;;6.68;;
18340;SDS011;9296;48.084;16.352;2024-02-23T03:59:53;9.18;;;6.68;;
18340;SDS011;9296;48.084;16.352;2024-02-23T04:02:23;9.43;;;6.45;;
18340;SDS011;9296;48.084;16.352;2024-02-23T04:04:51;10.27;;;6.72;;
18340;SDS011;9296;48.084;16.352;2024-02-23T04:10:35;6.10;;;4.85;;
18340;SDS011;9296;48.084;16.352;2024-02-23T04:13:02;6.95;;;4.68;;
18340;SDS011;9296;48.084;16.352;2024-02-23T04:15:36;5.03;;;4.00;;
18340;SDS011;9296;48.084;16.352;2024-02-23T04:18:09;4.15;;;3.30;;
18340;SDS011;9296;48.084;16.352;2024-02-23T04:20:37;5.75;;;3.47;;
18340;SDS011;9296;48.084;16.352;2024-02-23T04:26:12;3.30;;;2.80;;
18340;SDS011;9296;48.084;16.352;2024-02-23T04:28:42;4.75;;;3.25;;
18340;SDS011;9296;48.084;16.352;2024-02-23T04:31:10;3.80;;;3.00;;
18340;SDS011;9296;48.084;16.352;2024-02-23T04:33:39;3.92;;;2.83;;
18340;SDS011;9296;48.084;16.352;2024-02-23T04:36:10;4.28;;;2.50;;
18340;SDS011;9296;48.084;16.352;2024-02-23T04:38:38;3.72;;;2.60;;
18340;SDS011;9296;48.084;16.352;2024-02-23T04:41:18;2.67;;;2.10;;
18340;SDS011;9296;48.084;16.352;2024-02-23T04:43:49;2.47;;;2.00;;
18340;SDS011;9296;48.084;16.352;2024-02-23T04:46:24;2.17;;;1.77;;
18340;SDS011;9296;48.084;16.352;2024-02-23T04:48:56;2.20;;;1.80;;
18340;SDS011;9296;48.084;16.352;2024-02-23T04:51:26;1.90;;;1.50;;
18340;SDS011;9296;48.084;16.352;2024-02-23T04:53:56;1.52;;;1.30;;
18340;SDS011;9296;48.084;16.352;2024-02-23T04:56:25;1.50;;;1.10;;
18340;SDS011;9296;48.084;16.352;2024-02-23T04:58:52;0.90;;;0.90;;
18340;SDS011;9296;48.084;16.352;2024-02-23T05:01:22;1.17;;;0.90;;
18340;SDS011;9296;48.084;16.352;2024-02-23T05:03:52;1.95;;;0.70;;
18340;SDS011;9296;48.084;16.352;2024-02-23T05:06:34;0.80;;;0.77;;
18340;SDS011;9296;48.084;16.352;2024-02-23T05:09:04;0.63;;;0.52;;
18340;SDS011;9296;48.084;16.352;2024-02-23T05:11:39;1.00;;;0.68;;
18340;SDS011;9296;48.084;16.352;2024-02-23T05:14:11;0.90;;;0.70;;
18340;SDS011;9296;48.084;16.352;2024-02-23T05:16:38;1.13;;;0.52;;
18340;SDS011;9296;48.084;16.352;2024-02-23T05:19:08;0.68;;;0.50;;
18340;SDS011;9296;48.084;16.352;2024-02-23T05:21:38;3.10;;;0.70;;
18340;SDS011;9296;48.084;16.352;2024-02-23T05:24:06;0.77;;;0.40;;
18340;SDS011;9296;48.084;16.352;2024-02-23T05:29:21;0.70;;;0.50;;
18340;SDS011;9296;48.084;16.352;2024-02-23T05:31:51;0.50;;;0.40;;
18340;SDS011;9296;48.084;16.352;2024-02-23T05:34:21;1.20;;;0.43;;
18340;SDS011;9296;48.084;16.352;2024-02-23T05:36:49;0.88;;;0.35;;
18340;SDS011;9296;48.084;16.352;2024-02-23T05:42:24;1.75;;;0.50;;
18340;SDS011;9296;48.084;16.352;2024-02-23T05:44:55;0.70;;;0.45;;
18340;SDS011;9296;48.084;16.352;2024-02-23T05:47:30;0.60;;;0.40;;
18340;SDS011;9296;48.084;16.352;2024-02-23T05:50:00;2.72;;;0.30;;
18340;SDS011;9296;48.084;16.352;2024-02-23T05:52:42;0.38;;;0.30;;
18340;SDS011;9296;48.084;16.352;2024-02-23T05:57:46;0.38;;;0.30;;
18340;SDS011;9296;48.084;16.352;2024-02-23T06:02:57;0.68;;;0.50;;
18340;SDS011;9296;48.084;16.352;2024-02-23T06:05:26;0.45;;;0.30;;
18340;SDS011;9296;48.084;16.352;2024-02-23T06:08:00;0.30;;;0.30;;
18340;SDS011;9296;48.084;16.352;2024-02-23T06:10:32;0.52;;;0.30;;
18340;SDS011;9296;48.084;16.352;2024-02-23T06:18:38;0.28;;;0.22;;
18340;SDS011;9296;48.084;16.352;2024-02-23T06:21:14;0.32;;;0.30;;
18340;SDS011;9296;48.084;16.352;2024-02-23T06:26:46;0.77;;;0.40;;
18340;SDS011;9296;48.084;16.352;2024-02-23T06:29:15;0.73;;;0.40;;
18340;SDS011;9296;48.084;16.352;2024-02-23T06:31:55;0.28;;;0.28;;
18340;SDS011;9296;48.084;16.352;2024-02-23T06:34:30;0.20;;;0.17;;
18340;SDS011;9296;48.084;16.352;2024-02-23T06:36:58;0.70;;;0.38;;
18340;SDS011;9296;48.084;16.352;2024-02-23T06:39:39;0.20;;;0.20;;
18340;SDS011;9296;48.084;16.352;2024-02-23T06:42:19;0.35;;;0.20;;
18340;SDS011;9296;48.084;16.352;2024-02-23T06:44:47;0.77;;;0.47;;
18340;SDS011;9296;48.084;16.352;2024-02-23T06:47:18;2.15;;;0.50;;
18340;SDS011;9296;48.084;16.352;2024-02-23T06:49:51;1.02;;;0.70;;
18340;SDS011;9296;48.084;16.352;2024-02-23T06:52:24;1.35;;;0.75;;
18340;SDS011;9296;48.084;16.352;2024-02-23T06:55:09;0.25;;;0.25;;
18340;SDS011;9296;48.084;16.352;2024-02-23T06:57:38;2.80;;;0.20;;
18340;SDS011;9296;48.084;16.352;2024-02-23T07:00:07;0.95;;;0.60;;
18340;SDS011;9296;48.084;16.352;2024-02-23T07:02:36;0.77;;;0.40;;
18340;SDS011;9296;48.084;16.352;2024-02-23T07:05:08;1.65;;;0.40;;
18340;SDS011;9296;48.084;16.352;2024-02-23T07:07:37;0.85;;;0.47;;
18340;SDS011;9296;48.084;16.352;2024-02-23T07:13:42;1.55;;;0.30;;
18340;SDS011;9296;48.084;16.352;2024-02-23T07:19:10;0.75;;;0.40;;
18340;SDS011;9296;48.084;16.352;2024-02-23T07:24:30;0.75;;;0.45;;
18340;SDS011;9296;48.084;16.352;2024-02-23T07:26:59;0.90;;;0.40;;
18340;SDS011;9296;48.084;16.352;2024-02-23T07:35:15;0.77;;;0.57;;
18340;SDS011;9296;48.084;16.352;2024-02-23T07:41:12;1.45;;;0.52;;
18340;SDS011;9296;48.084;16.352;2024-02-23T07:44:13;0.40;;;0.40;;
18340;SDS011;9296;48.084;16.352;2024-02-23T07:46:46;0.52;;;0.43;;
18340;SDS011;9296;48.084;16.352;2024-02-23T07:49:21;0.80;;;0.40;;
18340;SDS011;9296;48.084;16.352;2024-02-23T07:51:57;1.88;;;0.65;;
18340;SDS011;9296;48.084;16.352;2024-02-23T07:57:52;1.77;;;0.65;;
18340;SDS011;9296;48.084;16.352;2024-02-23T08:05:41;1.00;;;0.63;;
18340;SDS011;9296;48.084;16.352;2024-02-23T08:08:15;1.73;;;0.82;;
18340;SDS011;9296;48.084;16.352;2024-02-23T08:10:43;2.47;;;0.70;;
18340;SDS011;9296;48.084;16.352;2024-02-23T08:13:12;0.95;;;0.73;;
18340;SDS011;9296;48.084;16.352;2024-02-23T08:15:40;1.35;;;0.57;;
18340;SDS011;9296;48.084;16.352;2024-02-23T08:18:10;1.92;;;0.57;;
18340;SDS011;9296;48.084;16.352;2024-02-23T08:20:39;1.00;;;0.50;;
18340;SDS011;9296;48.084;16.352;2024-02-23T08:23:06;2.33;;;0.57;;
18340;SDS011;9296;48.084;16.352;2024-02-23T08:25:34;1.23;;;0.68;;
18340;SDS011;9296;48.084;16.352;2024-02-23T08:28:01;2.08;;;0.90;;
18340;SDS011;9296;48.084;16.352;2024-02-23T08:30:34;1.25;;;0.90;;
18340;SDS011;9296;48.084;16.352;2024-02-23T08:33:01;3.05;;;0.90;;
18340;SDS011;9296;48.084;16.352;2024-02-23T08:35:29;2.20;;;0.88;;
18340;SDS011;9296;48.084;16.352;2024-02-23T08:44:03;2.63;;;1.10;;
18340;SDS011;9296;48.084;16.352;2024-02-23T08:46:32;1.10;;;1.00;;
18340;SDS011;9296;48.084;16.352;2024-02-23T08:49:00;3.08;;;1.20;;
18340;SDS011;9296;48.084;16.352;2024-02-23T08:51:27;2.33;;;1.00;;
18340;SDS011;9296;48.084;16.352;2024-02-23T08:53:54;2.47;;;1.13;;
18340;SDS011;9296;48.084;16.352;2024-02-23T08:56:29;2.63;;;1.00;;
18340;SDS011;9296;48.084;16.352;2024-02-23T08:59:10;3.58;;;1.10;;
18340;SDS011;9296;48.084;16.352;2024-02-23T09:01:39;3.15;;;1.25;;
18340;SDS011;9296;48.084;16.352;2024-02-23T09:04:06;3.33;;;1.17;;
18340;SDS011;9296;48.084;16.352;2024-02-23T09:06:36;1.63;;;1.10;;
18340;SDS011;9296;48.084;16.352;2024-02-23T09:09:03;2.88;;;1.20;;
18340;SDS011;9296;48.084;16.352;2024-02-23T09:11:30;1.33;;;1.10;;
18340;SDS011;9296;48.084;16.352;2024-02-23T09:13:58;2.75;;;1.20;;
18340;SDS011;9296;48.084;16.352;2024-02-23T09:16:25;1.88;;;1.15;;
18340;SDS011;9296;48.084;16.352;2024-02-23T09:18:55;2.85;;;1.02;;
18340;SDS011;9296;48.084;16.352;2024-02-23T09:21:22;2.30;;;1.67;;
18340;SDS011;9296;48.084;16.352;2024-02-23T09:23:49;1.65;;;1.25;;
18340;SDS011;9296;48.084;16.352;2024-02-23T09:26:17;1.40;;;0.98;;
18340;SDS011;9296;48.084;16.352;2024-02-23T09:28:44;3.42;;;2.20;;
18340;SDS011;9296;48.084;16.352;2024-02-23T09:31:11;3.15;;;2.28;;
18340;SDS011;9296;48.084;16.352;2024-02-23T09:33:39;1.90;;;1.20;;
18340;SDS011;9296;48.084;16.352;2024-02-23T09:36:10;2.45;;;1.30;;
18340;SDS011;9296;48.084;16.352;2024-02-23T09:38:38;2.33;;;1.60;;
18340;SDS011;9296;48.084;16.352;2024-02-23T09:41:05;3.88;;;1.77;;
18340;SDS011;9296;48.084;16.352;2024-02-23T09:43:42;5.95;;;1.92;;
18340;SDS011;9296;48.084;16.352;2024-02-23T09:46:10;2.90;;;1.90;;
18340;SDS011;9296;48.084;16.352;2024-02-23T09:48:38;3.97;;;2.00;;
18340;SDS011;9296;48.084;16.352;2024-02-23T09:51:05;3.97;;;1.83;;
18340;SDS011;9296;48.084;16.352;2024-02-23T09:53:34;2.58;;;1.80;;
18340;SDS011;9296;48.084;16.352;2024-02-23T09:56:04;2.70;;;1.63;;
18340;SDS011;9296;48.084;16.352;2024-02-23T09:58:32;3.38;;;1.90;;
18340;SDS011;9296;48.084;16.352;2024-02-23T10:06:15;2.83;;;2.50;;
18340;SDS011;9296;48.084;16.352;2024-02-23T10:09:22;3.35;;;2.40;;
18340;SDS011;9296;48.084;16.352;2024-02-23T10:14:28;2.45;;;1.80;;
18340;SDS011;9296;48.084;16.352;2024-02-23T10:17:06;2.92;;;1.70;;
18340;SDS011;9296;48.084;16.352;2024-02-23T10:19:49;3.80;;;1.35;;
18340;SDS011;9296;48.084;16.352;2024-02-23T10:22:52;2.40;;;1.77;;
18340;SDS011;9296;48.084;16.352;2024-02-23T10:25:25;2.92;;;1.80;;
18340;SDS011;9296;48.084;16.352;2024-02-23T10:30:47;2.33;;;1.38;;
18340;SDS011;9296;48.084;16.352;2024-02-23T10:33:22;1.73;;;1.20;;
18340;SDS011;9296;48.084;16.352;2024-02-23T10:36:05;1.15;;;0.88;;
18340;SDS011;9296;48.084;16.352;2024-02-23T10:41:39;1.15;;;0.80;;
18340;SDS011;9296;48.084;16.352;2024-02-23T10:44:41;1.10;;;0.85;;
18340;SDS011;9296;48.084;16.352;2024-02-23T10:55:17;0.70;;;0.60;;
18340;SDS011;9296;48.084;16.352;2024-02-23T10:57:50;0.40;;;0.40;;
18340;SDS011;9296;48.084;16.352;2024-02-23T11:00:46;0.70;;;0.55;;
18340;SDS011;9296;48.084;16.352;2024-02-23T11:06:38;1.13;;;0.60;;
18340;SDS011;9296;48.084;16.352;2024-02-23T11:19:45;2.67;;;1.48;;
18340;SDS011;9296;48.084;16.352;2024-02-23T11:22:14;0.90;;;0.90;;
18340;SDS011;9296;48.084;16.352;2024-02-23T11:24:43;1.63;;;0.73;;
18340;SDS011;9296;48.084;16.352;2024-02-23T11:27:13;2.50;;;0.60;;
18340;SDS011;9296;48.084;16.352;2024-02-23T11:29:43;0.80;;;0.60;;
18340;SDS011;9296;48.084;16.352;2024-02-23T11:32:12;1.05;;;0.60;;
18340;SDS011;9296;48.084;16.352;2024-02-23T11:34:40;2.22;;;0.85;;
18340;SDS011;9296;48.084;16.352;2024-02-23T11:37:10;1.60;;;0.85;;
18340;SDS011;9296;48.084;16.352;2024-02-23T11:39:53;1.35;;;0.80;;
18340;SDS011;9296;48.084;16.352;2024-02-23T11:42:20;2.80;;;0.90;;
18340;SDS011;9296;48.084;16.352;2024-02-23T11:44:51;0.93;;;0.68;;
18340;SDS011;9296;48.084;16.352;2024-02-23T11:47:19;1.30;;;0.90;;
18340;SDS011;9296;48.084;16.352;2024-02-23T11:49:47;2.45;;;1.10;;
18340;SDS011;9296;48.084;16.352;2024-02-23T11:52:15;2.35;;;1.23;;
18340;SDS011;9296;48.084;16.352;2024-02-23T11:54:43;2.25;;;1.10;;
18340;SDS011;9296;48.084;16.352;2024-02-23T11:57:11;2.00;;;1.20;;
18340;SDS011;9296;48.084;16.352;2024-02-23T13:39:45;2.40;;;2.20;;
18340;SDS011;9296;48.084;16.352;2024-02-23T14:26:45;4.05;;;2.30;;
18340;SDS011;9296;48.084;16.352;2024-02-23T14:29:12;3.10;;;2.15;;
18340;SDS011;9296;48.084;16.352;2024-02-23T14:31:39;3.50;;;2.50;;
18340;SDS011;9296;48.084;16.352;2024-02-23T14:34:07;3.33;;;2.08;;
18340;SDS011;9296;48.084;16.352;2024-02-23T14:36:34;3.15;;;1.98;;
18340;SDS011;9296;48.084;16.352;2024-02-23T14:39:02;3.83;;;2.45;;
18340;SDS011;9296;48.084;16.352;2024-02-23T14:44:35;2.83;;;2.13;;
18340;SDS011;9296;48.084;16.352;2024-02-23T14:47:03;2.40;;;1.92;;
18340;SDS011;9296;48.084;16.352;2024-02-23T14:49:44;3.72;;;2.38;;
18340;SDS011;9296;48.084;16.352;2024-02-23T14:52:12;2.92;;;2.50;;
18340;SDS011;9296;48.084;16.352;2024-02-23T14:54:40;3.00;;;2.20;;
18340;SDS011;9296;48.084;16.352;2024-02-23T14:57:07;2.90;;;2.60;;
18340;SDS011;9296;48.084;16.352;2024-02-23T14:59:40;3.28;;;2.60;;
18340;SDS011;9296;48.084;16.352;2024-02-23T15:02:18;3.20;;;2.28;;
18340;SDS011;9296;48.084;16.352;2024-02-23T15:04:46;2.92;;;2.42;;
18340;SDS011;9296;48.084;16.352;2024-02-23T15:10:00;4.32;;;2.80;;
18340;SDS011;9296;48.084;16.352;2024-02-23T15:12:33;3.10;;;2.67;;
18340;SDS011;9296;48.084;16.352;2024-02-23T15:15:02;3.55;;;2.60;;
18340;SDS011;9296;48.084;16.352;2024-02-23T15:17:50;3.83;;;3.15;;
18340;SDS011;9296;48.084;16.352;2024-02-23T15:20:27;4.40;;;2.85;;
18340;SDS011;9296;48.084;16.352;2024-02-23T15:22:54;4.68;;;2.78;;
18340;SDS011;9296;48.084;16.352;2024-02-23T15:25:22;4.10;;;2.90;;
18340;SDS011;9296;48.084;16.352;2024-02-23T15:27:49;3.42;;;2.83;;
18340;SDS011;9296;48.084;16.352;2024-02-23T15:32:59;5.60;;;3.13;;
18340;SDS011;9296;48.084;16.352;2024-02-23T15:35:29;3.35;;;2.92;;
18340;SDS011;9296;48.084;16.352;2024-02-23T15:38:04;3.70;;;2.72;;
18340;SDS011;9296;48.084;16.352;2024-02-23T15:40:34;4.32;;;3.30;;
18340;SDS011;9296;48.084;16.352;2024-02-23T15:43:17;3.65;;;2.90;;
18340;SDS011;9296;48.084;16.352;2024-02-23T15:48:31;4.55;;;3.22;;
18340;SDS011;9296;48.084;16.352;2024-02-23T15:51:03;4.78;;;3.15;;
18340;SDS011;9296;48.084;16.352;2024-02-23T15:53:31;4.47;;;3.10;;
18340;SDS011;9296;48.084;16.352;2024-02-23T15:56:05;4.97;;;3.47;;
18340;SDS011;9296;48.084;16.352;2024-02-23T15:58:33;5.30;;;3.20;;
18340;SDS011;9296;48.084;16.352;2024-02-23T16:01:06;4.60;;;3.20;;
18340;SDS011;9296;48.084;16.352;2024-02-23T16:03:37;3.95;;;3.28;;
18340;SDS011;9296;48.084;16.352;2024-02-23T16:06:05;5.50;;;3.60;;
18340;SDS011;9296;48.084;16.352;2024-02-23T16:11:13;4.78;;;3.50;;
18340;SDS011;9296;48.084;16.352;2024-02-23T16:13:47;4.18;;;3.22;;
18340;SDS011;9296;48.084;16.352;2024-02-23T16:19:27;4.60;;;3.70;;
18340;SDS011;9296;48.084;16.352;2024-02-23T16:36:06;4.90;;;3.53;;
18340;SDS011;9296;48.084;16.352;2024-02-23T16:38:33;6.00;;;3.50;;
18340;SDS011;9296;48.084;16.352;2024-02-23T16:41:01;5.63;;;3.60;;
18340;SDS011;9296;48.084;16.352;2024-02-23T16:43:28;5.15;;;4.00;;
18340;SDS011;9296;48.084;16.352;2024-02-23T16:45:56;5.10;;;3.78;;
18340;SDS011;9296;48.084;16.352;2024-02-23T16:48:23;6.20;;;4.18;;
18340;SDS011;9296;48.084;16.352;2024-02-23T16:50:53;5.85;;;4.38;;
18340;SDS011;9296;48.084;16.352;2024-02-23T16:53:22;6.25;;;4.38;;
18340;SDS011;9296;48.084;16.352;2024-02-23T16:55:50;6.57;;;4.47;;
18340;SDS011;9296;48.084;16.352;2024-02-23T16:58:20;5.15;;;4.20;;
18340;SDS011;9296;48.084;16.352;2024-02-23T17:00:49;6.18;;;4.45;;
18340;SDS011;9296;48.084;16.352;2024-02-23T17:03:28;6.70;;;4.28;;
18340;SDS011;9296;48.084;16.352;2024-02-23T17:05:56;6.82;;;4.13;;
18340;SDS011;9296;48.084;16.352;2024-02-23T17:08:25;6.57;;;4.03;;
18340;SDS011;9296;48.084;16.352;2024-02-23T17:10:55;7.35;;;4.00;;
18340;SDS011;9296;48.084;16.352;2024-02-23T17:13:22;5.07;;;3.88;;
18340;SDS011;9296;48.084;16.352;2024-02-23T17:15:50;5.55;;;4.25;;
18340;SDS011;9296;48.084;16.352;2024-02-23T17:18:18;6.57;;;4.75;;
18340;SDS011;9296;48.084;16.352;2024-02-23T17:20:48;5.38;;;4.47;;
18340;SDS011;9296;48.084;16.352;2024-02-23T17:23:15;6.85;;;4.95;;
18340;SDS011;9296;48.084;16.352;2024-02-23T17:31:31;7.50;;;4.65;;
18340;SDS011;9296;48.084;16.352;2024-02-23T17:33:58;5.47;;;4.10;;
18340;SDS011;9296;48.084;16.352;2024-02-23T17:36:28;5.43;;;4.20;;
18340;SDS011;9296;48.084;16.352;2024-02-23T17:38:57;6.15;;;4.78;;
18340;SDS011;9296;48.084;16.352;2024-02-23T17:41:25;6.45;;;4.68;;
18340;SDS011;9296;48.084;16.352;2024-02-23T17:43:53;5.28;;;4.47;;
18340;SDS011;9296;48.084;16.352;2024-02-23T17:46:20;9.27;;;4.18;;
18340;SDS011;9296;48.084;16.352;2024-02-23T17:48:57;7.25;;;4.35;;
18340;SDS011;9296;48.084;16.352;2024-02-23T17:51:24;6.88;;;4.45;;
18340;SDS011;9296;48.084;16.352;2024-02-23T17:53:52;5.47;;;4.43;;
18340;SDS011;9296;48.084;16.352;2024-02-23T17:59:55;6.88;;;4.60;;
18340;SDS011;9296;48.084;16.352;2024-02-23T18:02:23;7.97;;;5.72;;
18340;SDS011;9296;48.084;16.352;2024-02-23T18:04:59;7.25;;;5.10;;
18340;SDS011;9296;48.084;16.352;2024-02-23T18:07:30;10.98;;;7.15;;
18340;SDS011;9296;48.084;16.352;2024-02-23T18:09:58;8.95;;;6.43;;
18340;SDS011;9296;48.084;16.352;2024-02-23T18:15:29;9.32;;;7.18;;
18340;SDS011;9296;48.084;16.352;2024-02-23T18:17:57;7.35;;;5.90;;
18340;SDS011;9296;48.084;16.352;2024-02-23T18:28:53;8.32;;;6.22;;
18340;SDS011;9296;48.084;16.352;2024-02-23T18:31:23;8.27;;;6.20;;
18340;SDS011;9296;48.084;16.352;2024-02-23T18:33:51;15.57;;;11.32;;
18340;SDS011;9296;48.084;16.352;2024-02-23T18:36:19;12.23;;;9.07;;
18340;SDS011;9296;48.084;16.352;2024-02-23T18:38:46;9.27;;;5.63;;
18340;SDS011;9296;48.084;16.352;2024-02-23T18:49:43;7.53;;;6.05;;
18340;SDS011;9296;48.084;16.352;2024-02-23T18:52:12;11.02;;;6.47;;
18340;SDS011;9296;48.084;16.352;2024-02-23T18:54:40;6.47;;;5.47;;
18340;SDS011;9296;48.084;16.352;2024-02-23T18:57:26;7.90;;;6.07;;
18340;SDS011;9296;48.084;16.352;2024-02-23T18:59:54;7.07;;;5.70;;
18340;SDS011;9296;48.084;16.352;2024-02-23T19:02:22;7.97;;;6.43;;
18340;SDS011;9296;48.084;16.352;2024-02-23T19:04:51;9.45;;;6.35;;
18340;SDS011;9296;48.084;16.352;2024-02-23T19:07:19;7.95;;;6.15;;
18340;SDS011;9296;48.084;16.352;2024-02-23T19:09:47;8.77;;;6.70;;
18340;SDS011;9296;48.084;16.352;2024-02-23T19:12:15;8.98;;;6.90;;
18340;SDS011;9296;48.084;16.352;2024-02-23T19:14:42;9.52;;;6.93;;
18340;SDS011;9296;48.084;16.352;2024-02-23T19:17:29;9.60;;;6.90;;
18340;SDS011;9296;48.084;16.352;2024-02-23T19:20:12;10.57;;;6.78;;
18340;SDS011;9296;48.084;16.352;2024-02-23T19:22:39;7.95;;;6.40;;
18340;SDS011;9296;48.084;16.352;2024-02-23T19:30:37;5.88;;;4.25;;
18340;SDS011;9296;48.084;16.352;2024-02-23T19:36:10;3.83;;;2.75;;
18340;SDS011;9296;48.084;16.352;2024-02-23T19:38:41;3.22;;;2.60;;
18340;SDS011;9296;48.084;16.352;2024-02-23T19:52:09;2.40;;;1.98;;
18340;SDS011;9296;48.084;16.352;2024-02-23T19:54:39;2.00;;;1.50;;
18340;SDS011;9296;48.084;16.352;2024-02-23T19:57:20;4.57;;;1.52;;
18340;SDS011;9296;48.084;16.352;2024-02-23T19:59:50;1.40;;;1.20;;
18340;SDS011;9296;48.084;16.352;2024-02-23T20:02:18;1.60;;;1.35;;
18340;SDS011;9296;48.084;16.352;2024-02-23T20:04:48;1.13;;;1.00;;
18340;SDS011;9296;48.084;16.352;2024-02-23T20:07:19;1.10;;;0.90;;
18340;SDS011;9296;48.084;16.352;2024-02-23T20:09:49;2.00;;;0.90;;
18340;SDS011;9296;48.084;16.352;2024-02-23T20:12:17;2.10;;;1.10;;
18340;SDS011;9296;48.084;16.352;2024-02-23T20:14:45;0.60;;;0.60;;
18340;SDS011;9296;48.084;16.352;2024-02-23T20:17:17;0.50;;;0.50;;
18340;SDS011;9296;48.084;16.352;2024-02-23T20:19:45;0.47;;;0.40;;
18340;SDS011;9296;48.084;16.352;2024-02-23T20:22:14;0.60;;;0.40;;
18340;SDS011;9296;48.084;16.352;2024-02-23T20:24:45;1.08;;;0.55;;
18340;SDS011;9296;48.084;16.352;2024-02-23T20:29:44;1.58;;;0.32;;
18340;SDS011;9296;48.084;16.352;2024-02-23T20:32:12;0.20;;;0.20;;